Time;durP1;ratioP1;P1;durP2;ratioP2;P2;SDS_P1;SDS_P2;PMS_P1;PMS_P2;Temp;Humidity;BMP_temperature;BMP_pressure;BME280_temperature;BME280_humidity;BME280_pressure;Samples;Min_cycle;Max_cycle;Signal;HPM_P1;HPM_P2
2024/02/26 00:02:16;;;;;;;3.22;1.23;;;;;;;4.57;74.68;98719.22;4993268;28;20046;-49
2024/02/26 00:04:42;;;;;;;1.70;0.93;;;;;;;4.56;74.51;98717.53;4987086;28;20050;-50
2024/02/26 00:07:09;;;;;;;2.63;1.23;;;;;;;4.57;75.04;98724.34;4985333;28;20050;-45
2024/02/26 00:09:37;;;;;;;2.25;1.23;;;;;;;4.58;75.22;98726.91;4986952;28;20086;-44
2024/02/26 00:12:05;;;;;;;6.15;1.23;;;;;;;4.60;75.65;98739.75;5003920;28;20053;-48
2024/02/26 00:14:33;;;;;;;3.42;1.10;;;;;;;4.56;75.49;98731.19;4986928;28;20466;-47
2024/02/26 00:17:00;;;;;;;3.22;1.27;;;;;;;4.54;75.83;98745.72;4990028;28;20439;-49
2024/02/26 00:19:27;;;;;;;3.50;1.30;;;;;;;4.56;76.02;98743.16;4987579;28;20052;-51
2024/02/26 00:21:55;;;;;;;2.25;1.15;;;;;;;4.59;75.53;98738.88;4992401;28;20057;-48
2024/02/26 00:24:22;;;;;;;2.13;1.20;;;;;;;4.55;75.87;98742.28;4993581;28;20538;-50
2024/02/26 00:26:52;;;;;;;2.72;1.08;;;;;;;4.56;75.69;98744.00;4992797;28;20089;-42
2024/02/26 00:29:21;;;;;;;5.40;1.88;;;;;;;4.65;75.42;98752.56;4997778;28;20054;-48
2024/02/26 00:31:48;;;;;;;3.55;1.02;;;;;;;4.61;75.25;98773.09;4986475;28;20062;-49
2024/02/26 00:34:16;;;;;;;2.75;1.70;;;;;;;4.59;75.16;98759.41;4993544;28;20057;-46
2024/02/26 00:36:43;;;;;;;5.55;1.13;;;;;;;4.58;75.63;98761.97;4991278;28;20081;-45
2024/02/26 00:39:11;;;;;;;6.38;1.30;;;;;;;4.62;75.98;98774.78;5003608;28;20052;-46
2024/02/26 00:41:40;;;;;;;1.88;0.80;;;;;;;4.60;75.61;98768.78;4998622;28;20053;-46
2024/02/26 00:44:07;;;;;;;6.68;1.65;;;;;;;4.58;75.57;98785.91;4997551;28;20044;-47
2024/02/26 00:46:34;;;;;;;2.08;1.05;;;;;;;4.63;75.09;98786.75;4995962;28;20053;-47
2024/02/26 00:49:01;;;;;;;2.65;1.35;;;;;;;4.62;75.11;98795.31;4990028;28;20071;-43
2024/02/26 00:51:28;;;;;;;3.33;1.30;;;;;;;4.55;74.99;98793.59;4999005;28;20050;-45
2024/02/26 00:53:55;;;;;;;1.35;0.65;;;;;;;4.59;75.23;98795.31;5001851;28;20073;-49
2024/02/26 00:56:22;;;;;;;2.15;1.17;;;;;;;4.62;75.30;98790.19;4989641;28;20050;-48
2024/02/26 00:58:48;;;;;;;2.30;1.30;;;;;;;4.56;75.33;98805.53;4999390;28;20046;-46
2024/02/26 01:01:15;;;;;;;1.55;1.10;;;;;;;4.56;74.73;98825.22;4989626;28;20077;-48
2024/02/26 01:03:42;;;;;;;2.40;1.30;;;;;;;4.60;74.85;98817.53;4992811;28;20124;-48
2024/02/26 01:06:11;;;;;;;2.42;1.63;;;;;;;4.59;74.57;98830.38;4989586;28;20050;-50
2024/02/26 01:08:39;;;;;;;2.92;0.90;;;;;;;4.55;74.39;98826.06;4988683;28;20051;-48
2024/02/26 01:11:07;;;;;;;2.95;1.63;;;;;;;4.63;73.91;98826.94;4994361;28;20050;-48
2024/02/26 01:13:34;;;;;;;7.15;1.38;;;;;;;4.65;73.83;98834.63;5001322;28;20078;-46
2024/02/26 01:16:01;;;;;;;1.58;0.85;;;;;;;4.65;74.07;98834.63;4986690;28;20061;-47
2024/02/26 01:18:29;;;;;;;4.55;0.93;;;;;;;4.62;74.32;98833.78;4991757;28;20054;-49
2024/02/26 01:20:56;;;;;;;2.92;1.02;;;;;;;4.59;74.59;98840.63;4988566;28;20054;-46
2024/02/26 01:23:23;;;;;;;2.58;1.02;;;;;;;4.60;74.56;98845.72;4988845;28;20137;-44
2024/02/26 01:25:50;;;;;;;2.60;1.13;;;;;;;4.61;74.31;98857.72;4997200;28;20105;-44
2024/02/26 01:28:17;;;;;;;5.50;0.88;;;;;;;4.62;74.93;98853.44;4991445;28;20053;-45
2024/02/26 01:30:43;;;;;;;3.40;1.00;;;;;;;4.65;74.93;98860.28;5001887;28;20487;-43
2024/02/26 01:33:10;;;;;;;2.55;1.25;;;;;;;4.63;74.78;98868.00;4999025;28;20515;-47
2024/02/26 01:35:39;;;;;;;2.78;1.30;;;;;;;4.61;74.77;98870.56;4992740;28;20069;-48
2024/02/26 01:38:06;;;;;;;2.97;1.65;;;;;;;4.58;74.71;98880.78;4988560;28;20518;-46
2024/02/26 01:40:32;;;;;;;1.85;1.13;;;;;;;4.60;74.47;98888.50;4989572;28;20100;-49
2024/02/26 01:43:00;;;;;;;2.75;1.02;;;;;;;4.57;74.26;98884.22;4989004;28;20133;-45
2024/02/26 01:45:28;;;;;;;1.83;0.90;;;;;;;4.62;74.20;98882.50;4997279;28;20089;-43
2024/02/26 01:47:55;;;;;;;1.70;0.98;;;;;;;4.62;74.10;98884.22;4994425;28;20109;-46
2024/02/26 01:50:23;;;;;;;2.17;0.73;;;;;;;4.60;74.02;98898.75;5002124;28;20054;-47
2024/02/26 01:52:52;;;;;;;1.40;0.95;;;;;;;4.60;73.37;98896.19;4982357;28;20140;-47
2024/02/26 01:55:22;;;;;;;4.13;1.00;;;;;;;4.63;73.65;98904.72;4986500;28;20129;-47
2024/02/26 01:57:52;;;;;;;2.42;0.65;;;;;;;4.65;73.39;98906.44;4986418;28;20113;-44
2024/02/26 02:00:21;;;;;;;6.30;0.70;;;;;;;4.57;73.77;98909.88;4991365;28;20049;-46
2024/02/26 02:02:49;;;;;;;1.23;0.82;;;;;;;4.52;73.48;98916.66;4984212;28;20050;-49
2024/02/26 02:05:18;;;;;;;1.63;1.17;;;;;;;4.53;72.83;98918.41;4983316;28;20531;-46
2024/02/26 02:07:45;;;;;;;1.25;0.82;;;;;;;4.53;73.08;98933.78;4986805;28;20074;-45
2024/02/26 02:10:12;;;;;;;2.25;0.75;;;;;;;4.47;73.31;98916.66;4990411;28;20062;-47
2024/02/26 02:12:40;;;;;;;2.65;0.82;;;;;;;4.49;73.59;98937.16;4992458;28;20048;-44
2024/02/26 02:15:07;;;;;;;3.33;1.35;;;;;;;4.45;73.04;98940.56;4993280;28;20082;-44
2024/02/26 02:17:34;;;;;;;4.03;0.70;;;;;;;4.48;73.39;98943.16;4989763;28;20085;-47
2024/02/26 02:20:01;;;;;;;2.10;1.10;;;;;;;4.47;73.47;98959.38;4991132;28;20287;-50
2024/02/26 02:22:28;;;;;;;2.65;1.08;;;;;;;4.46;73.97;98947.44;4987203;28;20058;-44
2024/02/26 02:24:54;;;;;;;4.78;1.50;;;;;;;4.45;73.29;98961.06;4989029;28;20495;-47
2024/02/26 02:27:21;;;;;;;2.05;1.00;;;;;;;4.46;73.54;98978.19;4994655;28;20057;-44
2024/02/26 02:29:48;;;;;;;5.18;1.20;;;;;;;4.40;73.60;98973.03;4996629;28;20532;-51
2024/02/26 02:32:17;;;;;;;2.30;0.75;;;;;;;4.42;73.50;98979.03;4987870;28;20101;-44
2024/02/26 02:34:45;;;;;;;3.33;1.63;;;;;;;4.39;73.72;98984.13;4990937;28;20061;-47
2024/02/26 02:37:12;;;;;;;3.17;1.23;;;;;;;4.35;74.14;98985.81;4990996;28;20061;-45
2024/02/26 02:39:39;;;;;;;2.70;1.33;;;;;;;4.36;73.98;98985.81;4995971;28;20045;-48
2024/02/26 02:42:06;;;;;;;3.63;1.42;;;;;;;4.40;74.55;98988.41;4989560;28;20046;-44
2024/02/26 02:44:32;;;;;;;5.32;2.67;;;;;;;4.41;74.11;98982.44;4982542;28;20742;-49
2024/02/26 02:47:00;;;;;;;4.20;1.75;;;;;;;4.36;74.31;98988.38;4986280;28;20062;-45
2024/02/26 02:49:27;;;;;;;4.38;1.90;;;;;;;4.34;74.35;99000.34;4985772;28;21136;-44
2024/02/26 02:51:54;;;;;;;2.08;1.20;;;;;;;4.37;73.84;99000.38;4991121;28;20038;-48
2024/02/26 02:54:20;;;;;;;4.95;2.03;;;;;;;4.35;73.68;99007.19;4977266;28;20047;-48
2024/02/26 02:56:47;;;;;;;4.43;1.70;;;;;;;4.39;74.17;99002.09;4985757;28;20137;-48
2024/02/26 02:59:14;;;;;;;2.35;1.05;;;;;;;4.35;74.53;99009.75;4988053;28;20125;-50
2024/02/26 03:01:40;;;;;;;3.13;1.80;;;;;;;4.34;74.16;99015.75;4995291;28;20065;-47
2024/02/26 03:04:07;;;;;;;3.22;1.23;;;;;;;4.43;73.72;99014.91;4987895;28;20558;-46
2024/02/26 03:06:35;;;;;;;2.15;1.42;;;;;;;4.46;74.02;99024.34;4995584;28;20062;-44
2024/02/26 03:09:02;;;;;;;2.20;1.15;;;;;;;4.43;73.82;99024.34;4988198;28;20060;-45
2024/02/26 03:11:31;;;;;;;2.55;1.45;;;;;;;4.44;74.26;99036.28;4995478;28;20077;-50
2024/02/26 03:13:58;;;;;;;2.85;1.15;;;;;;;4.41;74.20;99031.13;4986847;28;20051;-44
2024/02/26 03:16:25;;;;;;;2.97;1.55;;;;;;;4.42;73.86;99043.97;4989137;28;20510;-48
2024/02/26 03:18:51;;;;;;;5.72;1.35;;;;;;;4.47;74.18;99051.72;4981766;28;20055;-49
2024/02/26 03:21:18;;;;;;;2.97;1.50;;;;;;;4.48;73.41;99056.84;4983013;28;20051;-47
2024/02/26 03:23:45;;;;;;;3.40;1.40;;;;;;;4.48;73.69;99058.53;4998176;28;20127;-51
2024/02/26 03:26:14;;;;;;;2.40;1.30;;;;;;;4.46;74.11;99055.97;4982597;28;20165;-48
2024/02/26 03:28:41;;;;;;;6.30;1.95;;;;;;;4.49;73.31;99061.13;4989938;28;20154;-46
2024/02/26 03:31:08;;;;;;;7.50;2.22;;;;;;;4.51;73.23;99068.81;4983515;28;20050;-47
2024/02/26 03:33:35;;;;;;;4.40;2.22;;;;;;;4.48;73.76;99063.66;4996605;28;20566;-50
2024/02/26 03:36:02;;;;;;;4.40;2.20;;;;;;;4.46;73.71;99066.22;4987667;28;20069;-48
2024/02/26 03:38:31;;;;;;;4.22;2.13;;;;;;;4.44;73.67;99074.75;4984607;28;20042;-50
2024/02/26 03:40:57;;;;;;;4.20;2.08;;;;;;;4.44;73.73;99087.56;4992751;28;20073;-51
2024/02/26 03:43:24;;;;;;;4.25;1.83;;;;;;;4.42;74.02;99089.28;4992439;28;20213;-46
2024/02/26 03:45:51;;;;;;;3.92;1.95;;;;;;;4.39;74.41;99090.09;4990331;28;20058;-47
2024/02/26 03:48:19;;;;;;;4.72;1.52;;;;;;;4.37;74.19;99095.25;4991562;28;20045;-47
2024/02/26 03:50:46;;;;;;;3.88;2.00;;;;;;;4.32;74.66;99099.47;4981768;28;20061;-44
2024/02/26 03:53:12;;;;;;;2.10;1.60;;;;;;;4.27;74.45;99106.28;4988832;28;20050;-45
2024/02/26 03:55:41;;;;;;;4.07;1.80;;;;;;;4.28;74.40;99112.22;4993552;28;20050;-49
2024/02/26 03:58:08;;;;;;;2.15;1.50;;;;;;;4.25;74.15;99118.19;4991575;28;20053;-50
2024/02/26 04:00:37;;;;;;;2.67;1.48;;;;;;;4.23;74.73;99122.47;4981058;28;20062;-45
2024/02/26 04:03:04;;;;;;;2.30;1.25;;;;;;;4.16;74.92;99134.38;4986698;28;20052;-43
2024/02/26 04:05:31;;;;;;;2.78;1.52;;;;;;;4.16;74.86;99143.78;4988786;28;20164;-50
2024/02/26 04:07:59;;;;;;;4.15;1.77;;;;;;;4.16;74.47;99148.91;4986664;28;20046;-47
2024/02/26 04:10:25;;;;;;;3.75;1.52;;;;;;;4.16;74.66;99148.91;4991866;28;20057;-48
2024/02/26 04:12:52;;;;;;;3.60;1.40;;;;;;;4.12;75.51;99145.44;4993099;28;20422;-45
2024/02/26 04:15:19;;;;;;;4.32;1.23;;;;;;;4.13;75.58;99156.56;4997135;28;20049;-46
2024/02/26 04:17:46;;;;;;;4.60;1.45;;;;;;;4.17;75.40;99163.41;4990703;28;20053;-49
2024/02/26 04:20:15;;;;;;;5.00;1.40;;;;;;;4.14;75.27;99160.81;4996972;28;20046;-45
2024/02/26 04:22:42;;;;;;;2.95;1.70;;;;;;;4.18;75.41;99167.69;4990614;28;20502;-49
2024/02/26 04:25:09;;;;;;;4.30;1.30;;;;;;;4.18;75.46;99170.25;4986323;28;20047;-46
2024/02/26 04:27:36;;;;;;;4.22;1.90;;;;;;;4.23;75.09;99173.75;4993531;28;20137;-43
2024/02/26 04:30:04;;;;;;;3.17;1.20;;;;;;;4.21;75.95;99178.84;5000951;28;20054;-44
2024/02/26 04:32:30;;;;;;;5.70;1.52;;;;;;;4.22;76.03;99183.13;4998457;28;20570;-46
2024/02/26 04:34:57;;;;;;;2.22;1.13;;;;;;;4.23;76.28;99197.66;5003701;28;20073;-45
2024/02/26 04:37:30;;;;;;;2.78;0.85;;;;;;;4.24;75.99;99203.66;5004242;28;20188;-44
2024/02/26 04:39:59;;;;;;;4.10;1.40;;;;;;;4.28;75.17;99207.97;4996898;28;20680;-45
2024/02/26 04:42:26;;;;;;;6.32;1.02;;;;;;;4.22;75.73;99210.47;5001856;28;20472;-52
2024/02/26 04:44:54;;;;;;;3.47;1.00;;;;;;;4.23;76.34;99217.31;4997030;28;20100;-50
2024/02/26 04:47:22;;;;;;;2.38;1.33;;;;;;;4.26;76.01;99227.59;4991666;28;20053;-46
2024/02/26 04:49:50;;;;;;;2.90;0.75;;;;;;;4.26;75.77;99226.75;4997795;28;20060;-49
2024/02/26 04:52:17;;;;;;;2.03;1.10;;;;;;;4.21;76.40;99245.50;5002990;28;20050;-48
2024/02/26 04:54:44;;;;;;;1.88;1.10;;;;;;;4.25;76.11;99246.38;4999341;28;20407;-44
2024/02/26 04:57:10;;;;;;;2.58;2.35;;;;;;;4.23;75.77;99242.94;5001704;28;20787;-49
2024/02/26 04:59:37;;;;;;;13.60;0.70;;;;;;;4.20;76.35;99248.03;4997969;28;20058;-50
2024/02/26 05:02:04;;;;;;;2.55;0.70;;;;;;;4.22;75.74;99248.94;5004859;28;20046;-46
2024/02/26 05:04:31;;;;;;;2.83;0.57;;;;;;;4.11;76.88;99270.16;4996042;28;20066;-45
2024/02/26 05:06:58;;;;;;;1.77;1.52;;;;;;;4.11;76.13;99269.31;4991152;28;20518;-50
2024/02/26 05:09:24;;;;;;;1.02;0.65;;;;;;;4.10;76.47;99271.03;4999261;28;20058;-44
2024/02/26 05:11:51;;;;;;;0.85;0.85;;;;;;;4.10;76.95;99283.84;4991272;28;20519;-42
2024/02/26 05:14:19;;;;;;;1.10;0.70;;;;;;;4.13;76.60;99275.31;4993272;28;20443;-43
2024/02/26 05:16:46;;;;;;;1.90;0.65;;;;;;;4.13;76.38;99292.38;4996435;28;20070;-49
2024/02/26 05:19:14;;;;;;;0.93;0.93;;;;;;;4.15;76.38;99290.72;4990040;28;20076;-49
2024/02/26 05:21:42;;;;;;;2.28;0.80;;;;;;;4.11;76.79;99306.06;5000136;28;20089;-46
2024/02/26 05:24:09;;;;;;;0.80;0.70;;;;;;;4.18;76.37;99311.22;4996823;28;20046;-51
2024/02/26 05:26:36;;;;;;;1.70;0.88;;;;;;;4.16;76.65;99307.81;4994703;28;20054;-48
2024/02/26 05:29:02;;;;;;;2.75;1.25;;;;;;;4.13;76.47;99318.03;4994623;28;20152;-44
2024/02/26 05:31:29;;;;;;;3.88;0.60;;;;;;;4.13;76.57;99328.28;4998606;28;20056;-45
2024/02/26 05:33:56;;;;;;;1.45;0.82;;;;;;;4.11;76.37;99331.69;4992182;28;20046;-48
2024/02/26 05:36:24;;;;;;;1.08;0.40;;;;;;;4.05;76.73;99335.88;4992461;28;20466;-46
2024/02/26 05:38:51;;;;;;;0.80;0.65;;;;;;;4.05;76.53;99341.84;4988080;28;20397;-43
2024/02/26 05:41:22;;;;;;;0.88;0.75;;;;;;;4.02;76.92;99349.50;4992734;28;20499;-50
2024/02/26 05:43:50;;;;;;;3.70;1.10;;;;;;;3.96;76.73;99357.97;4991561;28;20049;-49
2024/02/26 05:46:18;;;;;;;2.10;0.88;;;;;;;3.98;76.89;99361.41;4998409;28;20046;-44
2024/02/26 05:48:48;;;;;;;2.58;1.13;;;;;;;3.96;76.78;99367.38;4996041;28;20046;-46
2024/02/26 05:51:16;;;;;;;0.60;0.60;;;;;;;3.93;77.00;99368.19;4988276;28;20046;-45
2024/02/26 05:53:43;;;;;;;5.50;1.02;;;;;;;3.93;76.65;99378.44;4997905;28;20054;-46
2024/02/26 05:56:10;;;;;;;1.23;0.77;;;;;;;3.94;76.91;99384.41;5002269;28;20526;-48
2024/02/26 05:58:37;;;;;;;2.38;0.60;;;;;;;3.91;77.33;99392.03;4999576;28;20055;-48
2024/02/26 06:01:03;;;;;;;1.75;0.70;;;;;;;3.91;77.32;99389.50;4999258;28;20049;-46
2024/02/26 06:03:30;;;;;;;0.75;0.63;;;;;;;3.88;77.13;99392.03;4999592;28;20080;-47
2024/02/26 06:05:57;;;;;;;0.85;0.50;;;;;;;3.84;77.26;99404.78;4998353;28;20053;-49
2024/02/26 06:08:23;;;;;;;2.20;1.05;;;;;;;3.82;77.19;99406.47;4993532;28;20056;-45
2024/02/26 06:10:50;;;;;;;1.45;0.82;;;;;;;3.83;77.30;99415.88;4990620;28;20057;-48
2024/02/26 06:13:17;;;;;;;2.13;0.77;;;;;;;3.85;77.82;99416.75;4987729;28;20050;-45
2024/02/26 06:15:44;;;;;;;2.67;0.75;;;;;;;3.88;77.18;99417.66;4990135;28;20057;-47
2024/02/26 06:18:11;;;;;;;4.70;0.93;;;;;;;3.88;77.17;99425.34;4990051;28;20149;-45
2024/02/26 06:20:38;;;;;;;0.88;0.73;;;;;;;3.84;77.67;99435.53;4999793;28;20050;-46
2024/02/26 06:23:05;;;;;;;0.80;0.60;;;;;;;3.84;77.39;99430.41;4996467;28;20049;-51
2024/02/26 06:25:32;;;;;;;1.13;0.73;;;;;;;3.85;78.15;99441.53;4988071;28;20050;-48
2024/02/26 06:27:59;;;;;;;0.63;0.63;;;;;;;3.77;77.47;99437.97;4988467;28;20152;-47
2024/02/26 06:30:26;;;;;;;2.03;1.13;;;;;;;3.80;77.14;99446.56;4989704;28;20121;-44
2024/02/26 06:32:53;;;;;;;1.80;1.25;;;;;;;3.79;77.77;99452.56;4990670;28;20136;-49
2024/02/26 06:35:20;;;;;;;3.65;1.15;;;;;;;3.79;77.71;99449.13;4993545;28;20130;-47
2024/02/26 06:37:50;;;;;;;2.67;1.98;;;;;;;3.83;77.63;99454.31;4988149;28;20599;-50
2024/02/26 06:40:17;;;;;;;3.63;0.68;;;;;;;3.86;77.86;99464.59;4976913;28;20055;-45
2024/02/26 06:42:43;;;;;;;1.02;0.80;;;;;;;3.84;77.59;99461.16;4999965;28;20080;-46
2024/02/26 06:45:15;;;;;;;2.65;0.80;;;;;;;3.90;77.35;99474.88;4991352;28;20050;-46
2024/02/26 06:47:42;;;;;;;4.32;0.88;;;;;;;3.90;77.64;99486.00;4994939;28;20542;-43
2024/02/26 06:50:12;;;;;;;1.10;0.60;;;;;;;3.89;77.99;99491.09;4988653;28;20427;-47
2024/02/26 06:52:38;;;;;;;5.20;0.98;;;;;;;3.95;77.52;99483.53;4985311;28;20055;-48
2024/02/26 06:55:08;;;;;;;1.27;0.77;;;;;;;3.94;77.39;99499.72;4985336;28;20520;-51
2024/02/26 06:57:34;;;;;;;2.97;0.98;;;;;;;3.94;77.11;99499.72;4988712;28;20760;-46
2024/02/26 07:00:03;;;;;;;0.63;0.45;;;;;;;3.89;76.86;99499.66;4997087;28;20045;-47
2024/02/26 07:02:31;;;;;;;1.35;0.45;;;;;;;3.85;77.15;99511.53;4985381;28;20064;-43
2024/02/26 07:04:58;;;;;;;1.00;0.70;;;;;;;3.85;76.76;99519.22;4997544;28;20056;-46
2024/02/26 07:07:25;;;;;;;2.17;0.68;;;;;;;3.81;77.37;99519.16;4985736;28;20770;-46
2024/02/26 07:09:52;;;;;;;0.88;0.88;;;;;;;3.81;76.90;99522.59;4985306;28;20411;-48
2024/02/26 07:12:21;;;;;;;0.68;0.65;;;;;;;3.77;77.26;99536.19;4988856;28;20578;-47
2024/02/26 07:14:49;;;;;;;4.47;1.55;;;;;;;3.75;77.31;99532.72;4984710;28;20643;-45
2024/02/26 07:17:16;;;;;;;2.88;1.13;;;;;;;3.71;77.70;99541.19;4977149;28;20053;-49
2024/02/26 07:19:43;;;;;;;1.00;0.90;;;;;;;3.65;77.35;99541.09;4984050;28;20789;-49
2024/02/26 07:22:10;;;;;;;1.33;0.82;;;;;;;3.55;77.65;99540.94;4972735;28;20081;-46
2024/02/26 07:24:36;;;;;;;1.15;1.05;;;;;;;3.50;78.62;99550.22;4985200;28;20061;-43
2024/02/26 07:27:03;;;;;;;1.55;0.90;;;;;;;3.56;77.70;99558.03;4974650;28;20049;-47
2024/02/26 07:29:30;;;;;;;1.98;0.98;;;;;;;3.53;78.12;99562.22;4981339;28;20053;-48
2024/02/26 07:31:58;;;;;;;5.05;0.90;;;;;;;3.56;77.39;99563.16;4977264;28;20061;-49
2024/02/26 07:34:28;;;;;;;1.08;0.60;;;;;;;3.50;78.09;99570.72;4981919;28;20058;-47
2024/02/26 07:36:56;;;;;;;3.15;1.00;;;;;;;3.54;77.30;99569.06;4976583;28;20514;-45
2024/02/26 07:39:23;;;;;;;1.10;0.90;;;;;;;3.51;77.50;99569.88;4983430;28;20045;-45
2024/02/26 07:41:52;;;;;;;3.42;1.13;;;;;;;3.58;77.45;99576.00;4981448;28;20078;-46
2024/02/26 07:44:21;;;;;;;5.05;1.27;;;;;;;3.55;77.97;99571.66;4975102;28;20043;-49
2024/02/26 07:46:48;;;;;;;6.32;0.85;;;;;;;3.64;77.77;99580.38;4983994;28;20087;-49
2024/02/26 07:49:14;;;;;;;1.00;0.55;;;;;;;3.66;77.65;99583.81;4983446;28;20054;-44
2024/02/26 07:51:41;;;;;;;3.05;1.27;;;;;;;3.65;77.20;99597.44;4985539;28;20101;-47
2024/02/26 07:54:08;;;;;;;1.27;0.93;;;;;;;3.60;77.60;99592.22;4982875;28;20046;-48
2024/02/26 07:56:35;;;;;;;1.25;0.73;;;;;;;3.66;77.55;99594.03;4983961;28;20173;-48
2024/02/26 07:59:04;;;;;;;0.95;0.75;;;;;;;3.79;77.66;99593.44;4986766;28;20073;-45
2024/02/26 08:01:30;;;;;;;1.45;0.65;;;;;;;3.88;77.34;99595.28;4982512;28;20065;-44
2024/02/26 08:03:58;;;;;;;1.17;0.80;;;;;;;4.13;77.13;99599.97;4981518;28;20143;-47
2024/02/26 08:06:25;;;;;;;2.35;0.80;;;;;;;4.40;76.49;99603.81;4984349;28;20050;-47
2024/02/26 08:08:52;;;;;;;2.28;1.92;;;;;;;4.84;76.54;99610.41;4983767;28;20651;-49
2024/02/26 08:11:20;;;;;;;1.85;0.90;;;;;;;5.14;75.14;99609.94;4983504;28;20170;-50
2024/02/26 08:13:46;;;;;;;3.83;0.95;;;;;;;5.40;74.57;99617.09;4983851;28;20054;-48
2024/02/26 08:16:13;;;;;;;1.67;0.60;;;;;;;5.66;72.27;99616.53;4980646;28;20392;-43
2024/02/26 08:18:40;;;;;;;0.85;0.82;;;;;;;5.72;71.58;99617.44;4981044;28;20077;-51
2024/02/26 08:21:08;;;;;;;1.40;0.63;;;;;;;6.07;71.55;99624.66;4983821;28;20404;-44
2024/02/26 08:23:35;;;;;;;2.17;0.95;;;;;;;6.35;71.30;99619.72;4981409;28;20054;-42
2024/02/26 08:26:04;;;;;;;6.68;1.02;;;;;;;6.47;71.06;99638.69;4980869;28;20423;-45
2024/02/26 08:28:30;;;;;;;2.10;0.80;;;;;;;6.65;69.27;99633.66;4982511;28;20062;-45
2024/02/26 08:30:58;;;;;;;2.03;0.77;;;;;;;6.69;68.64;99640.56;4983269;28;20046;-47
2024/02/26 08:33:25;;;;;;;2.13;1.05;;;;;;;6.99;68.50;99647.63;4982709;28;20058;-47
2024/02/26 08:35:52;;;;;;;1.80;1.70;;;;;;;7.30;68.74;99652.91;4982699;28;20632;-50
2024/02/26 08:38:19;;;;;;;2.28;0.93;;;;;;;7.72;68.54;99648.75;4981329;28;20492;-47
2024/02/26 08:40:45;;;;;;;3.33;1.05;;;;;;;8.32;66.37;99657.44;4982443;28;20054;-46
2024/02/26 08:43:12;;;;;;;1.80;1.13;;;;;;;8.98;65.61;99654.78;4982891;28;20504;-45
2024/02/26 08:45:39;;;;;;;1.90;1.02;;;;;;;9.49;64.39;99657.22;4984654;28;20093;-47
2024/02/26 08:48:07;;;;;;;3.92;1.02;;;;;;;10.16;63.52;99663.72;4985710;28;20050;-45
2024/02/26 08:50:34;;;;;;;1.08;0.90;;;;;;;10.36;59.89;99663.56;4984762;28;20046;-45
2024/02/26 08:53:01;;;;;;;5.45;1.17;;;;;;;11.00;61.10;99672.50;4983827;28;20691;-53
2024/02/26 08:55:32;;;;;;;1.30;0.80;;;;;;;11.36;59.71;99685.09;4979392;28;20054;-44
2024/02/26 08:58:03;;;;;;;6.18;1.60;;;;;;;11.75;59.29;99690.63;4978328;28;20050;-49
2024/02/26 09:00:30;;;;;;;2.60;0.90;;;;;;;11.72;57.65;99695.03;4981657;28;20051;-47
2024/02/26 09:02:57;;;;;;;3.97;1.10;;;;;;;11.60;56.85;99688.25;4983266;28;20058;-50
2024/02/26 09:05:27;;;;;;;1.35;0.93;;;;;;;10.89;56.58;99683.00;4979826;28;20053;-47
2024/02/26 09:07:55;;;;;;;1.75;1.00;;;;;;;11.12;58.31;99694.84;4983082;28;20054;-45
2024/02/26 09:10:22;;;;;;;1.55;0.70;;;;;;;11.20;57.49;99698.22;4982525;28;20050;-42
2024/02/26 09:12:48;;;;;;;1.38;0.80;;;;;;;11.23;58.36;99708.56;4984650;28;20059;-45
2024/02/26 09:15:17;;;;;;;1.60;0.75;;;;;;;10.58;57.33;99709.19;4984833;28;20057;-48
2024/02/26 09:17:45;;;;;;;3.90;0.93;;;;;;;9.94;58.56;99723.38;4981559;28;20057;-48
2024/02/26 09:20:13;;;;;;;1.42;0.50;;;;;;;9.33;59.58;99715.00;4980783;28;20050;-46
2024/02/26 09:22:42;;;;;;;3.88;1.13;;;;;;;9.01;60.67;99719.38;4982742;28;20054;-46
2024/02/26 09:25:09;;;;;;;2.83;0.80;;;;;;;8.80;61.05;99730.59;4987024;28;20042;-49
2024/02/26 09:27:35;;;;;;;3.90;0.70;;;;;;;8.82;61.68;99736.63;4981630;28;20534;-51
2024/02/26 09:30:06;;;;;;;2.42;1.20;;;;;;;8.96;62.24;99737.47;4986107;28;20058;-44
2024/02/26 09:32:34;;;;;;;2.75;1.17;;;;;;;8.92;62.32;99746.06;4979580;28;20586;-46
2024/02/26 09:35:01;;;;;;;3.00;0.75;;;;;;;8.67;61.79;99753.84;4982157;28;20042;-45
2024/02/26 09:37:27;;;;;;;0.98;0.55;;;;;;;8.48;62.05;99750.38;4982478;28;20420;-43
2024/02/26 09:39:54;;;;;;;1.73;0.82;;;;;;;8.36;63.66;99756.34;4981872;28;21387;-46
2024/02/26 09:42:26;;;;;;;6.22;1.02;;;;;;;8.38;63.94;99764.97;4980249;28;20047;-47
2024/02/26 09:44:55;;;;;;;3.13;0.85;;;;;;;9.14;63.53;99761.56;4977046;28;20133;-48
2024/02/26 09:47:23;;;;;;;2.97;0.65;;;;;;;9.60;62.47;99767.50;4981916;28;20500;-46
2024/02/26 09:49:53;;;;;;;6.22;1.02;;;;;;;9.68;62.08;99776.06;4980494;28;20050;-46
2024/02/26 09:52:21;;;;;;;2.40;1.08;;;;;;;9.66;61.93;99784.72;4978623;28;20046;-49
2024/02/26 09:54:48;;;;;;;1.75;0.63;;;;;;;9.45;61.63;99778.72;4977462;28;20134;-51
2024/02/26 09:57:17;;;;;;;1.40;0.70;;;;;;;9.09;61.99;99776.22;4966819;28;20054;-46
2024/02/26 09:59:48;;;;;;;1.67;0.60;;;;;;;8.62;62.34;99778.81;4967011;28;20050;-49
2024/02/26 10:02:15;;;;;;;4.47;1.10;;;;;;;8.36;63.00;99782.16;4973586;28;20064;-50
2024/02/26 10:04:43;;;;;;;1.38;0.60;;;;;;;8.12;63.17;99791.56;4986149;28;20042;-50
2024/02/26 10:07:17;;;;;;;4.35;0.82;;;;;;;8.41;63.94;99789.91;4984319;28;20054;-48
2024/02/26 10:09:44;;;;;;;1.40;0.52;;;;;;;8.46;64.09;99794.25;4982911;28;20046;-48
2024/02/26 10:12:11;;;;;;;2.13;0.80;;;;;;;9.03;63.79;99804.63;4980553;28;20082;-48
2024/02/26 10:14:39;;;;;;;0.93;0.60;;;;;;;9.40;62.88;99789.09;4980572;28;20065;-46
2024/02/26 10:17:08;;;;;;;0.95;0.57;;;;;;;9.43;61.52;99807.19;4981722;28;20051;-48
2024/02/26 10:19:35;;;;;;;3.47;2.05;;;;;;;9.29;61.75;99801.16;4984624;28;20603;-44
2024/02/26 10:22:05;;;;;;;0.85;0.60;;;;;;;9.24;61.41;99802.03;4981366;28;20140;-48
2024/02/26 10:24:32;;;;;;;2.80;1.17;;;;;;;9.19;61.05;99811.50;4980246;28;20055;-45
2024/02/26 10:26:59;;;;;;;2.85;0.35;;;;;;;9.08;61.38;99813.22;4977887;28;20054;-47
2024/02/26 10:29:26;;;;;;;1.60;0.70;;;;;;;8.72;61.11;99808.91;4980706;28;20070;-46
2024/02/26 10:31:53;;;;;;;1.05;0.93;;;;;;;8.47;61.72;99836.38;4980251;28;20513;-45
2024/02/26 10:34:20;;;;;;;3.85;0.73;;;;;;;8.33;62.25;99838.91;4976976;28;20068;-48
2024/02/26 10:36:48;;;;;;;0.50;0.47;;;;;;;8.27;62.44;99839.75;4985699;28;20460;-47
2024/02/26 10:39:20;;;;;;;2.25;0.35;;;;;;;8.90;63.08;99835.63;4981531;28;20463;-44
2024/02/26 10:41:48;;;;;;;3.38;0.95;;;;;;;9.47;62.07;99837.34;4981145;28;20108;-49
2024/02/26 10:44:14;;;;;;;1.85;0.90;;;;;;;9.92;60.50;99840.69;4981853;28;20490;-50
2024/02/26 10:46:49;;;;;;;2.15;0.50;;;;;;;10.44;59.04;99843.88;4981545;28;20050;-49
2024/02/26 10:49:18;;;;;;;3.30;0.57;;;;;;;10.49;58.13;99849.94;4977453;28;20124;-50
2024/02/26 10:51:54;;;;;;;1.65;0.80;;;;;;;10.46;58.09;99857.72;4980023;28;20085;-44
2024/02/26 10:54:23;;;;;;;1.17;0.52;;;;;;;10.27;58.64;99868.97;4980749;28;20050;-49
2024/02/26 10:56:51;;;;;;;5.30;0.77;;;;;;;9.89;58.30;99862.22;4974467;28;20117;-50
2024/02/26 10:59:20;;;;;;;1.02;0.63;;;;;;;9.71;58.79;99855.38;4973713;28;20467;-46
2024/02/26 11:01:49;;;;;;;2.63;0.52;;;;;;;9.98;59.78;99854.44;4977338;28;20062;-49
2024/02/26 11:04:17;;;;;;;2.35;0.95;;;;;;;10.31;58.76;99861.22;4973443;28;20055;-46
2024/02/26 11:06:46;;;;;;;2.05;0.73;;;;;;;10.22;58.55;99857.81;4982451;28;20128;-48
2024/02/26 11:09:14;;;;;;;1.75;0.45;;;;;;;10.35;58.86;99868.97;4978807;28;20555;-45
2024/02/26 11:11:42;;;;;;;2.08;0.60;;;;;;;10.08;58.38;99877.69;4983737;28;20484;-48
2024/02/26 11:14:09;;;;;;;1.27;0.88;;;;;;;9.98;58.92;99875.16;4983697;28;20050;-45
2024/02/26 11:16:42;;;;;;;1.42;0.60;;;;;;;9.90;59.48;99879.50;4976646;28;20105;-49
2024/02/26 11:19:11;;;;;;;1.67;0.50;;;;;;;9.66;59.47;99894.16;4970319;28;20054;-47
2024/02/26 11:21:40;;;;;;;1.20;0.43;;;;;;;9.33;59.62;99898.50;4972559;28;20043;-47
2024/02/26 11:24:10;;;;;;;2.88;0.90;;;;;;;9.20;60.28;99902.81;4973664;28;21206;-44
2024/02/26 11:26:45;;;;;;;2.13;0.82;;;;;;;9.22;60.13;99914.88;4976782;28;20136;-45
2024/02/26 11:29:16;;;;;;;1.33;0.50;;;;;;;9.32;60.27;99914.91;4992035;28;20721;-48
2024/02/26 11:31:44;;;;;;;4.28;0.43;;;;;;;9.34;60.16;99923.50;4978387;28;20625;-45
2024/02/26 11:34:11;;;;;;;0.70;0.50;;;;;;;9.37;60.56;99908.88;4979130;28;20042;-51
2024/02/26 11:36:39;;;;;;;1.55;0.32;;;;;;;9.38;60.32;99915.75;4981542;28;20058;-49
2024/02/26 11:39:07;;;;;;;3.00;0.95;;;;;;;9.18;60.21;99912.31;4981074;28;20057;-48
2024/02/26 11:41:33;;;;;;;1.73;0.68;;;;;;;9.02;60.34;99911.41;4977536;28;20141;-46
2024/02/26 11:44:03;;;;;;;0.98;0.40;;;;;;;8.88;60.77;99925.16;4979399;28;20507;-48